createdAt,value
2024-03-26T13:02:49.615Z,9.308983
2024-03-26T15:32:00.020Z,9.309114
2024-03-26T15:43:35.372Z,9.309031
2024-03-26T15:44:34.462Z,9.309052
2024-03-26T15:45:34.938Z,9.309022
2024-03-26T15:46:44.448Z,9.309038
2024-03-26T15:47:36.432Z,9.309064
2024-03-26T15:48:35.150Z,9.309063
2024-03-26T15:49:33.579Z,9.309128
2024-03-26T15:50:33.370Z,9.309083
2024-03-26T16:32:09.002Z,9.308966
2024-03-26T16:33:07.958Z,9.308900
2024-03-26T16:34:08.107Z,9.308682
2024-03-26T16:35:08.478Z,9.309009
2024-03-26T16:36:08.104Z,9.309149
2024-03-26T16:43:14.740Z,9.309246
2024-03-26T16:44:14.940Z,9.309279
2024-03-26T16:45:14.710Z,9.309284
2024-03-26T16:46:14.024Z,9.309192
2024-03-26T16:47:14.449Z,9.309115
2024-03-26T16:48:13.819Z,9.309091
2024-03-26T16:49:15.139Z,9.309114
2024-03-26T16:50:14.009Z,9.309124
2024-03-26T16:51:14.303Z,9.309163
2024-03-26T16:52:13.809Z,9.309098
2024-03-26T16:53:13.939Z,9.309093
2024-03-26T16:54:15.066Z,9.309136
2024-03-26T16:55:14.648Z,9.309074
2024-03-26T16:56:14.543Z,9.309104
2024-03-26T16:57:13.880Z,9.309183
2024-03-26T16:58:13.676Z,9.309171
2024-03-26T16:59:15.807Z,9.309284
2024-03-26T17:00:14.065Z,9.309269
2024-03-26T17:14:39.488Z,9.309094
2024-03-26T17:15:38.326Z,9.309072
2024-03-26T17:16:59.334Z,9.309072
2024-03-26T17:17:40.292Z,9.309150
2024-03-26T17:18:38.859Z,9.309283
2024-03-26T17:19:40.881Z,9.309235
2024-03-26T17:20:39.409Z,9.309115
2024-03-26T17:21:38.580Z,9.309141
2024-03-26T17:22:39.338Z,9.309175
2024-03-26T21:22:46.612Z,9.309080
2024-03-26T21:23:46.708Z,9.309059
2024-03-26T21:24:46.652Z,9.309008
2024-03-26T21:25:46.475Z,9.308953
2024-03-26T21:26:46.615Z,9.308939
2024-03-26T21:27:46.609Z,9.308999
2024-03-26T21:28:46.601Z,9.308968
2024-03-26T21:29:46.484Z,9.309071
2024-03-26T21:30:46.584Z,9.309008
2024-03-26T21:31:46.381Z,9.309027
2024-03-26T21:32:46.548Z,9.308987
2024-03-26T21:33:46.572Z,9.308988
2024-03-26T21:34:46.494Z,9.308977
2024-03-26T21:35:46.626Z,9.309090
2024-03-26T21:36:46.793Z,9.309060
2024-03-26T21:37:46.579Z,9.309069
2024-03-26T21:38:47.499Z,9.308970
2024-03-26T21:39:46.668Z,9.308971
2024-03-26T21:40:46.448Z,9.309057
2024-03-26T21:41:46.964Z,9.309114
2024-03-26T21:42:46.543Z,9.309051
2024-03-26T21:43:46.421Z,9.308975
2024-03-26T21:44:46.457Z,9.309142
2024-03-26T21:45:46.467Z,9.309089
2024-03-26T21:46:46.593Z,9.309171
2024-03-26T21:47:46.691Z,9.308976
2024-03-26T21:48:46.466Z,9.308925
2024-03-26T21:49:47.440Z,9.308991
2024-03-26T21:50:46.493Z,9.309013
2024-03-26T21:51:46.399Z,9.309036
2024-03-26T21:52:46.530Z,9.309068
2024-03-26T21:53:46.412Z,9.309071
2024-03-26T21:54:46.344Z,9.309040
2024-03-26T21:55:46.398Z,9.309020
2024-03-26T21:56:46.226Z,9.308991
2024-03-26T21:57:46.236Z,9.309056
2024-03-26T21:58:46.402Z,9.308969
2024-03-26T21:59:46.314Z,9.309025
2024-03-26T22:00:46.876Z,9.309021
2024-03-26T22:01:46.246Z,9.309093
2024-03-26T22:02:46.467Z,9.309094
2024-03-26T22:03:46.332Z,9.309034
2024-03-26T22:04:46.257Z,9.308930
2024-03-26T22:05:46.417Z,9.308895
2024-03-26T22:06:46.353Z,9.309056
2024-03-26T22:07:46.392Z,9.309086
2024-03-26T22:08:46.248Z,9.309169
2024-03-26T22:09:46.300Z,9.309065
2024-03-26T22:10:46.272Z,9.309038
2024-03-26T22:11:46.574Z,9.309011
2024-03-26T22:12:46.225Z,9.309098
2024-03-26T22:13:46.198Z,9.309176
2024-03-26T22:14:46.203Z,9.309164
2024-03-26T22:15:46.199Z,9.309153
2024-03-26T22:16:46.313Z,9.309139
2024-03-26T22:17:46.147Z,9.309074
2024-03-26T22:18:46.156Z,9.309130
2024-03-26T22:19:46.360Z,9.309129
2024-03-26T22:20:46.154Z,9.309092
2024-03-26T22:21:48.483Z,9.309127
2024-03-26T22:22:46.070Z,9.309096
2024-03-26T22:23:46.121Z,9.309129
2024-03-26T22:24:46.099Z,9.309149
2024-03-26T22:25:46.443Z,9.309209
2024-03-26T22:26:46.240Z,9.309177
2024-03-26T22:27:46.501Z,9.309181
2024-03-26T22:28:46.110Z,9.309176
2024-03-26T22:29:46.303Z,9.309217
2024-03-26T22:30:46.215Z,9.309097
2024-03-26T22:31:46.070Z,9.309079
2024-03-26T22:32:46.229Z,9.309122
2024-03-26T22:33:46.304Z,9.309155
2024-03-26T22:34:46.073Z,9.309114
2024-03-26T22:35:46.218Z,9.309067
2024-03-26T22:36:46.039Z,9.309150
2024-03-26T22:37:46.121Z,9.309167
2024-03-26T22:38:46.467Z,9.309237
2024-03-26T22:39:46.091Z,9.309159
2024-03-26T22:40:46.120Z,9.309106
2024-03-26T22:41:46.090Z,9.309162
2024-03-26T22:42:46.207Z,9.309159
2024-03-26T22:43:46.036Z,9.309149
2024-03-26T22:44:46.235Z,9.309152
2024-03-26T22:45:46.038Z,9.309136
2024-03-26T22:46:46.207Z,9.309122
2024-03-26T22:47:46.040Z,9.309093
2024-03-26T22:48:46.208Z,9.309057
2024-03-26T22:49:45.917Z,9.309072
2024-03-26T22:50:46.351Z,9.309056
2024-03-26T22:51:45.868Z,9.309084
2024-03-26T22:52:45.867Z,9.309080
2024-03-26T22:53:45.897Z,9.309134
2024-03-26T22:54:45.883Z,9.309134
2024-03-26T22:55:45.903Z,9.309102
2024-03-26T22:56:45.865Z,9.309155
2024-03-26T22:57:45.888Z,9.309128
2024-03-26T22:58:45.903Z,9.309041
2024-03-26T22:59:45.959Z,9.309058
2024-03-26T23:00:45.857Z,9.309080
2024-03-26T23:01:45.801Z,9.309134
2024-03-26T23:02:45.960Z,9.309181
2024-03-26T23:03:45.854Z,9.309083
2024-03-26T23:04:45.872Z,9.309155
2024-03-26T23:05:46.047Z,9.309091
2024-03-26T23:06:45.880Z,9.309175
2024-03-26T23:07:46.284Z,9.309086
2024-03-26T23:08:45.895Z,9.309092
2024-03-26T23:09:46.455Z,9.309073
2024-03-26T23:10:45.734Z,9.309083
2024-03-26T23:11:45.880Z,9.309052
2024-03-26T23:12:45.656Z,9.309037
2024-03-26T23:13:45.950Z,9.309029
2024-03-26T23:14:45.928Z,9.309107
2024-03-26T23:15:45.802Z,9.309117
2024-03-26T23:16:45.776Z,9.309113
2024-03-26T23:17:45.811Z,9.309081
2024-03-26T23:18:45.915Z,9.309062
2024-03-26T23:19:46.135Z,9.309160
2024-03-26T23:20:45.760Z,9.309249
2024-03-26T23:21:45.740Z,9.309219
2024-03-26T23:22:45.787Z,9.309185
2024-03-26T23:23:45.765Z,9.309232
2024-03-26T23:24:45.795Z,9.309163
2024-03-26T23:25:45.784Z,9.309078
2024-03-26T23:26:45.626Z,9.309072
2024-03-26T23:27:45.659Z,9.308995
2024-03-26T23:28:45.684Z,9.309084
2024-03-26T23:29:45.711Z,9.309072
2024-03-26T23:30:45.643Z,9.309023
2024-03-26T23:31:45.729Z,9.308933
2024-03-26T23:32:45.833Z,9.308980
2024-03-26T23:33:45.654Z,9.309031
2024-03-26T23:34:45.683Z,9.309027
2024-03-26T23:35:45.658Z,9.309021
2024-03-26T23:36:45.609Z,9.309135
2024-03-26T23:37:45.647Z,9.309152
2024-03-26T23:38:46.481Z,9.309196
2024-03-26T23:39:45.624Z,9.309240
2024-03-26T23:40:45.568Z,9.309316
2024-03-26T23:41:45.844Z,9.309163
2024-03-26T23:42:45.622Z,9.309221
2024-03-26T23:43:45.600Z,9.309181
2024-03-26T23:44:45.523Z,9.309081
2024-03-26T23:45:45.642Z,9.309129
2024-03-26T23:46:45.614Z,9.309152
2024-03-26T23:47:45.888Z,9.309215
2024-03-26T23:48:45.627Z,9.309334
2024-03-26T23:49:45.401Z,9.309300
2024-03-26T23:50:45.538Z,9.309273
2024-03-26T23:51:45.673Z,9.309174
2024-03-26T23:52:45.643Z,9.309127
2024-03-26T23:53:45.685Z,9.309015
2024-03-26T23:54:45.587Z,9.309112
2024-03-26T23:55:45.636Z,9.309055
2024-03-26T23:56:45.532Z,9.309072
2024-03-26T23:57:45.655Z,9.309224
2024-03-26T23:58:45.857Z,9.309320
2024-03-26T23:59:45.587Z,9.309167
